Time;durP1;ratioP1;P1;durP2;ratioP2;P2;SDS_P1;SDS_P2;PMS_P1;PMS_P2;Temp;Humidity;BMP_temperature;BMP_pressure;BME280_temperature;BME280_humidity;BME280_pressure;Samples;Min_cycle;Max_cycle;Signal;HPM_P1;HPM_P2
2022/10/05 00:00:53;;;;;;;0.50;0.40;;;12.80;99.90;;;;;;5071921;28;20472;-76
2022/10/05 00:03:21;;;;;;;0.50;0.40;;;12.70;99.90;;;;;;5071662;28;20444;-77
2022/10/05 00:05:49;;;;;;;0.50;0.40;;;12.70;99.90;;;;;;5071438;28;20448;-76
2022/10/05 00:08:19;;;;;;;0.50;0.40;;;12.60;99.90;;;;;;5071880;28;20455;-77
2022/10/05 00:10:46;;;;;;;0.50;0.40;;;12.60;99.90;;;;;;5071514;28;20194;-77
2022/10/05 00:13:15;;;;;;;0.50;0.40;;;12.60;99.90;;;;;;5071297;28;20429;-76
2022/10/05 00:15:42;;;;;;;1.77;1.23;;;12.50;99.90;;;;;;5071158;28;20454;-76
2022/10/05 00:18:16;;;;;;;1.07;0.97;;;12.50;99.90;;;;;;5071473;28;20210;-77
2022/10/05 00:20:43;;;;;;;0.60;0.50;;;12.50;99.90;;;;;;5071439;28;20456;-77
2022/10/05 00:23:17;;;;;;;0.77;0.63;;;12.60;99.90;;;;;;5071545;28;20447;-76
2022/10/05 00:25:44;;;;;;;0.50;0.40;;;12.60;99.90;;;;;;5070932;28;20446;-77
2022/10/05 00:28:17;;;;;;;0.50;0.40;;;12.60;99.90;;;;;;5070782;28;20543;-76
2022/10/05 00:30:44;;;;;;;0.60;0.50;;;12.60;99.90;;;;;;5071619;28;20190;-76
2022/10/05 00:33:11;;;;;;;0.50;0.40;;;12.60;99.90;;;;;;5070657;28;20440;-75
2022/10/05 00:35:39;;;;;;;0.50;0.50;;;12.70;99.90;;;;;;5071232;28;20530;-77
2022/10/05 00:38:06;;;;;;;0.50;0.40;;;12.70;99.90;;;;;;5071455;28;20456;-76
2022/10/05 00:40:43;;;;;;;0.50;0.40;;;12.70;99.90;;;;;;5070916;28;20483;-76
2022/10/05 00:43:23;;;;;;;0.50;0.40;;;12.70;99.90;;;;;;5070874;28;20457;-76
2022/10/05 00:45:55;;;;;;;0.50;0.40;;;12.70;99.90;;;;;;5071058;28;20460;-76
2022/10/05 00:48:31;;;;;;;0.50;0.40;;;12.70;99.90;;;;;;5071460;28;20435;-76
2022/10/05 00:51:17;;;;;;;0.50;0.40;;;12.70;99.90;;;;;;5071608;28;20434;-77
2022/10/05 00:53:50;;;;;;;0.50;0.40;;;12.90;99.90;;;;;;5070751;28;20898;-76
2022/10/05 00:56:29;;;;;;;0.50;0.50;;;12.90;99.90;;;;;;5071329;28;20455;-76
2022/10/05 00:59:07;;;;;;;0.50;0.40;;;12.90;99.90;;;;;;5071131;28;20449;-76
2022/10/05 01:01:40;;;;;;;0.50;0.40;;;13.00;99.90;;;;;;5071424;28;20460;-76
2022/10/05 01:04:16;;;;;;;1.00;0.90;;;13.00;99.90;;;;;;5070510;28;20474;-75
2022/10/05 01:06:55;;;;;;;1.17;0.77;;;13.00;99.90;;;;;;5071074;28;20825;-77
2022/10/05 01:09:33;;;;;;;0.50;0.40;;;13.10;99.90;;;;;;5071178;28;20440;-76
2022/10/05 01:12:07;;;;;;;0.50;0.50;;;13.10;99.90;;;;;;5071130;28;20542;-76
2022/10/05 01:14:41;;;;;;;0.50;0.40;;;13.10;99.90;;;;;;5070817;28;20452;-76
2022/10/05 01:17:15;;;;;;;0.50;0.40;;;13.10;99.90;;;;;;5071031;28;20472;-76
2022/10/05 01:20:11;;;;;;;1.67;1.10;;;13.10;99.90;;;;;;5070925;28;20460;-76
2022/10/05 01:23:09;;;;;;;0.50;0.40;;;13.10;99.90;;;;;;5061315;28;20479;-76
2022/10/05 01:25:47;;;;;;;0.50;0.40;;;13.10;99.90;;;;;;5066449;28;20452;-76
2022/10/05 01:28:23;;;;;;;0.50;0.40;;;13.10;99.90;;;;;;5074599;28;20458;-76
2022/10/05 01:30:56;;;;;;;0.50;0.40;;;13.00;99.90;;;;;;5074392;28;20459;-76
2022/10/05 01:33:30;;;;;;;0.50;0.40;;;13.00;99.90;;;;;;5074020;28;20798;-76
2022/10/05 01:36:04;;;;;;;0.50;0.40;;;13.00;99.90;;;;;;5073955;28;20438;-73
2022/10/05 01:38:42;;;;;;;1.03;0.77;;;12.90;99.90;;;;;;5074272;28;20436;-76
2022/10/05 01:41:23;;;;;;;0.83;0.77;;;12.90;99.90;;;;;;5074177;28;21068;-75
2022/10/05 01:43:56;;;;;;;0.50;0.40;;;12.90;99.90;;;;;;5073910;28;20980;-76
2022/10/05 01:46:28;;;;;;;4.30;1.17;;;12.90;99.90;;;;;;5074104;28;21055;-76
2022/10/05 01:49:18;;;;;;;0.50;0.40;;;13.00;99.90;;;;;;5074537;28;20435;-76
2022/10/05 01:51:57;;;;;;;1.50;1.40;;;13.00;99.90;;;;;;5074381;28;20413;-76
2022/10/05 01:54:35;;;;;;;0.50;0.40;;;13.00;99.90;;;;;;5073639;28;20957;-76
2022/10/05 01:57:13;;;;;;;0.50;0.40;;;13.00;99.90;;;;;;5074317;28;20543;-75
2022/10/05 01:59:54;;;;;;;0.87;0.87;;;13.00;99.90;;;;;;5073999;28;20436;-77
2022/10/05 02:02:23;;;;;;;0.50;0.40;;;12.90;99.90;;;;;;5074247;28;20456;-76
2022/10/05 02:04:55;;;;;;;0.50;0.37;;;12.90;99.90;;;;;;5073431;28;20436;-76
2022/10/05 02:07:25;;;;;;;1.37;1.27;;;12.80;99.90;;;;;;5073982;28;20456;-76
2022/10/05 02:09:58;;;;;;;0.60;0.53;;;12.80;99.90;;;;;;5073957;28;20431;-76
2022/10/05 02:12:29;;;;;;;0.50;0.40;;;12.80;99.90;;;;;;5074026;28;20423;-76
2022/10/05 02:15:03;;;;;;;1.33;1.23;;;12.80;99.90;;;;;;5073417;28;20447;-76
2022/10/05 02:17:36;;;;;;;0.50;0.40;;;12.80;99.90;;;;;;5073773;28;20473;-76
2022/10/05 02:20:07;;;;;;;0.50;0.40;;;12.80;99.90;;;;;;5073895;28;20473;-75
2022/10/05 02:22:38;;;;;;;0.67;0.53;;;12.80;99.90;;;;;;5073546;28;20476;-76
2022/10/05 02:25:09;;;;;;;0.50;0.40;;;12.90;99.90;;;;;;5073597;28;20432;-76
2022/10/05 02:27:42;;;;;;;1.10;0.80;;;12.80;99.90;;;;;;5073598;28;20464;-76
2022/10/05 02:30:12;;;;;;;0.50;0.40;;;12.90;99.90;;;;;;5073449;28;20507;-75
2022/10/05 02:32:44;;;;;;;0.50;0.40;;;12.90;99.90;;;;;;5073418;28;20436;-76
2022/10/05 02:35:15;;;;;;;0.67;0.50;;;12.90;99.90;;;;;;5072393;28;20441;-73
2022/10/05 02:37:53;;;;;;;6.67;2.30;;;12.90;99.90;;;;;;5073205;28;20471;-76
2022/10/05 02:40:29;;;;;;;0.50;0.40;;;12.90;99.90;;;;;;5073430;28;20462;-76
2022/10/05 02:43:03;;;;;;;0.77;0.77;;;12.90;99.90;;;;;;5072985;28;20955;-76
2022/10/05 02:45:42;;;;;;;1.53;1.43;;;12.90;99.90;;;;;;5073222;28;20451;-76
2022/10/05 02:48:15;;;;;;;0.50;0.40;;;12.90;99.90;;;;;;5073652;28;20467;-76
2022/10/05 02:50:49;;;;;;;0.70;0.70;;;12.90;99.90;;;;;;5072963;28;20443;-76
2022/10/05 02:53:26;;;;;;;0.50;0.50;;;12.90;99.90;;;;;;5073222;28;20439;-76
2022/10/05 02:56:06;;;;;;;1.83;1.73;;;12.90;99.90;;;;;;5072776;28;20891;-76
2022/10/05 02:58:38;;;;;;;2.47;2.37;;;12.80;99.90;;;;;;5073420;28;20440;-76
2022/10/05 03:01:14;;;;;;;0.50;0.40;;;12.80;99.90;;;;;;5072424;28;20425;-73
2022/10/05 03:03:45;;;;;;;2.23;2.10;;;12.80;99.90;;;;;;5072887;28;20428;-76
2022/10/05 03:06:18;;;;;;;1.27;0.60;;;12.90;99.90;;;;;;5072446;28;20440;-76
2022/10/05 03:08:53;;;;;;;0.83;0.83;;;12.90;99.90;;;;;;5072457;28;20432;-76
2022/10/05 03:11:26;;;;;;;2.40;2.20;;;12.80;99.90;;;;;;5072921;28;20515;-76
2022/10/05 03:14:00;;;;;;;0.50;0.40;;;12.80;99.90;;;;;;5072050;28;20436;-74
2022/10/05 03:16:38;;;;;;;1.40;1.30;;;12.80;99.90;;;;;;5072574;28;20305;-76
2022/10/05 03:19:17;;;;;;;1.33;1.23;;;12.90;99.90;;;;;;5072757;28;20428;-75
2022/10/05 03:21:53;;;;;;;0.50;0.50;;;12.90;99.90;;;;;;5072152;28;20483;-75
2022/10/05 03:24:52;;;;;;;0.50;0.40;;;12.90;99.90;;;;;;5072195;28;20817;-76
2022/10/05 03:27:31;;;;;;;3.00;2.70;;;12.90;99.90;;;;;;5068639;28;20451;-76
2022/10/05 03:30:04;;;;;;;1.00;0.90;;;13.00;99.90;;;;;;5092788;28;20442;-76
2022/10/05 03:32:42;;;;;;;0.50;0.40;;;13.00;99.90;;;;;;5092624;28;20834;-76
2022/10/05 03:35:14;;;;;;;3.17;1.83;;;13.00;99.90;;;;;;5091676;28;20426;-76
2022/10/05 03:37:49;;;;;;;0.50;0.40;;;13.00;99.90;;;;;;5092282;28;20459;-76
2022/10/05 03:40:29;;;;;;;0.50;0.50;;;13.00;99.90;;;;;;5092412;28;20549;-75
2022/10/05 03:43:10;;;;;;;3.00;2.43;;;13.00;99.90;;;;;;5091786;28;20455;-76
2022/10/05 03:45:48;;;;;;;4.97;1.23;;;13.10;99.90;;;;;;5091827;28;20547;-77
2022/10/05 03:48:20;;;;;;;1.83;0.70;;;13.10;99.90;;;;;;5092612;28;20550;-76
2022/10/05 03:50:58;;;;;;;0.50;0.40;;;13.00;99.90;;;;;;5091318;28;20915;-76
2022/10/05 03:53:29;;;;;;;0.50;0.40;;;13.10;99.90;;;;;;5092267;28;20435;-75
2022/10/05 03:56:03;;;;;;;0.50;0.30;;;13.10;99.90;;;;;;5091756;28;20427;-76
2022/10/05 03:58:35;;;;;;;1.30;1.20;;;13.10;99.90;;;;;;5092430;28;20453;-76
2022/10/05 04:01:06;;;;;;;0.60;0.50;;;13.10;99.90;;;;;;5092043;28;20958;-75
2022/10/05 04:03:38;;;;;;;3.10;2.27;;;13.10;99.90;;;;;;5092054;28;20439;-75
2022/10/05 04:06:12;;;;;;;2.23;0.77;;;13.00;99.90;;;;;;5091371;28;20518;-75
2022/10/05 04:08:44;;;;;;;0.50;0.40;;;13.10;99.90;;;;;;5091927;28;20446;-76
2022/10/05 04:11:17;;;;;;;0.70;0.70;;;13.10;99.90;;;;;;5091690;28;20444;-76
2022/10/05 04:13:48;;;;;;;1.73;1.43;;;13.10;99.90;;;;;;5091781;28;20424;-75
2022/10/05 04:16:21;;;;;;;1.73;1.30;;;13.00;99.90;;;;;;5091509;28;20430;-76
2022/10/05 04:18:56;;;;;;;2.47;2.37;;;13.10;99.90;;;;;;5091655;28;20445;-75
2022/10/05 04:21:28;;;;;;;1.43;0.73;;;13.10;99.90;;;;;;5091504;28;20439;-75
2022/10/05 04:23:59;;;;;;;0.60;0.60;;;13.10;99.90;;;;;;5091564;28;20781;-75
2022/10/05 04:26:34;;;;;;;2.20;1.37;;;13.10;99.90;;;;;;5091919;28;20467;-76
2022/10/05 04:29:11;;;;;;;2.97;1.47;;;13.10;99.90;;;;;;5091284;28;20441;-75
2022/10/05 04:31:50;;;;;;;1.90;1.80;;;13.10;99.90;;;;;;5091550;28;20423;-75
2022/10/05 04:34:34;;;;;;;0.50;0.47;;;13.10;99.90;;;;;;5090854;28;20955;-75
2022/10/05 04:37:07;;;;;;;0.60;0.60;;;13.20;99.90;;;;;;5091297;28;20469;-74
2022/10/05 04:39:42;;;;;;;1.33;1.23;;;13.20;99.90;;;;;;5091378;28;20812;-76
2022/10/05 04:42:18;;;;;;;0.50;0.40;;;13.20;99.90;;;;;;5091425;28;20461;-75
2022/10/05 04:45:08;;;;;;;1.83;1.17;;;13.20;99.90;;;;;;5091296;28;20518;-76
2022/10/05 04:47:54;;;;;;;5.60;2.50;;;13.20;99.90;;;;;;5091324;28;20443;-75
2022/10/05 04:50:35;;;;;;;2.10;1.90;;;13.20;99.90;;;;;;5091171;28;20439;-76
2022/10/05 04:53:09;;;;;;;2.93;1.37;;;13.20;99.90;;;;;;5091040;28;20430;-76
2022/10/05 04:55:42;;;;;;;1.23;0.77;;;13.20;99.90;;;;;;5091017;28;20430;-75
2022/10/05 04:58:20;;;;;;;0.50;0.50;;;13.10;99.90;;;;;;5090787;28;20469;-76
2022/10/05 05:00:59;;;;;;;0.50;0.40;;;13.10;99.90;;;;;;5091453;28;20445;-76
2022/10/05 05:03:39;;;;;;;0.70;0.60;;;13.10;99.90;;;;;;5095733;28;20463;-75
2022/10/05 05:06:18;;;;;;;7.37;2.40;;;13.10;99.90;;;;;;5094776;28;20439;-75
2022/10/05 05:09:21;;;;;;;0.50;0.40;;;13.10;99.90;;;;;;5095102;28;20423;-76
2022/10/05 05:12:07;;;;;;;0.50;0.30;;;13.10;99.90;;;;;;5095070;28;20442;-75
2022/10/05 05:14:55;;;;;;;2.47;0.97;;;13.10;99.90;;;;;;5094779;28;20485;-75
2022/10/05 05:17:37;;;;;;;2.20;1.27;;;13.10;99.90;;;;;;5095011;28;20470;-75
2022/10/05 05:20:17;;;;;;;2.53;2.33;;;13.10;99.90;;;;;;5095181;28;20431;-75
2022/10/05 05:22:51;;;;;;;1.37;0.70;;;13.10;99.90;;;;;;5094512;28;20573;-75
2022/10/05 05:25:31;;;;;;;0.73;0.60;;;13.10;99.90;;;;;;5094597;28;20521;-74
2022/10/05 05:28:03;;;;;;;2.30;2.20;;;13.10;99.90;;;;;;5094739;28;20458;-76
2022/10/05 05:30:40;;;;;;;0.70;0.50;;;13.10;99.90;;;;;;5081579;28;20456;-75
2022/10/05 05:33:17;;;;;;;0.50;0.40;;;13.20;99.90;;;;;;5094386;28;20426;-74
2022/10/05 05:36:06;;;;;;;0.50;0.40;;;13.20;99.90;;;;;;5094465;28;20419;-75
2022/10/05 05:38:38;;;;;;;0.70;0.70;;;13.20;99.90;;;;;;5094717;28;20435;-76
2022/10/05 05:41:10;;;;;;;0.70;0.60;;;13.20;99.90;;;;;;5094532;28;20461;-76
2022/10/05 05:43:50;;;;;;;0.77;0.77;;;13.30;99.90;;;;;;5094490;28;20578;-75
2022/10/05 05:46:23;;;;;;;3.17;1.93;;;13.30;99.90;;;;;;5094480;28;20466;-75
2022/10/05 05:48:51;;;;;;;1.60;1.13;;;13.30;99.90;;;;;;5094330;28;20860;-76
2022/10/05 05:51:23;;;;;;;1.80;1.10;;;13.30;99.90;;;;;;5094318;28;20450;-75
2022/10/05 05:53:54;;;;;;;3.43;1.07;;;13.40;99.90;;;;;;5093946;28;20205;-76
2022/10/05 05:56:29;;;;;;;2.07;1.80;;;13.50;99.90;;;;;;5094280;28;20491;-76
2022/10/05 05:58:59;;;;;;;1.87;1.33;;;13.50;99.90;;;;;;5094447;28;20546;-75
2022/10/05 06:01:32;;;;;;;0.60;0.57;;;13.50;99.90;;;;;;5094667;28;20506;-76
2022/10/05 06:04:03;;;;;;;0.50;0.40;;;13.60;99.90;;;;;;5093938;28;20463;-77
2022/10/05 06:06:32;;;;;;;1.03;0.73;;;13.60;99.90;;;;;;5093775;28;20543;-78
2022/10/05 06:09:04;;;;;;;0.60;0.60;;;13.60;99.90;;;;;;5094026;28;20444;-75
2022/10/05 06:11:35;;;;;;;6.03;2.50;;;13.70;99.90;;;;;;5094346;28;20432;-75
2022/10/05 06:14:09;;;;;;;1.70;1.60;;;13.70;99.90;;;;;;5093212;28;20467;-75
2022/10/05 06:16:41;;;;;;;1.23;1.13;;;13.70;99.90;;;;;;5093766;28;20471;-75
2022/10/05 06:19:12;;;;;;;3.27;2.43;;;13.80;99.90;;;;;;5093640;28;20445;-75
2022/10/05 06:21:43;;;;;;;1.00;0.77;;;13.80;99.90;;;;;;5093760;28;20812;-76
2022/10/05 06:24:16;;;;;;;2.57;2.37;;;13.80;99.90;;;;;;5093418;28;20198;-75
2022/10/05 06:27:20;;;;;;;5.07;1.90;;;13.80;99.90;;;;;;5093488;28;21015;-76
2022/10/05 06:30:04;;;;;;;0.97;0.97;;;13.90;99.90;;;;;;5093391;28;20450;-76
2022/10/05 06:32:34;;;;;;;0.60;0.50;;;13.90;99.90;;;;;;5094101;28;20440;-76
2022/10/05 06:35:10;;;;;;;0.77;0.77;;;14.00;99.90;;;;;;5092796;28;20438;-76
2022/10/05 06:38:06;;;;;;;2.70;0.93;;;14.00;99.90;;;;;;5094690;28;20470;-76
2022/10/05 06:40:47;;;;;;;1.23;0.90;;;14.10;99.90;;;;;;5072554;28;20837;-76
2022/10/05 06:43:26;;;;;;;0.50;0.40;;;14.10;99.90;;;;;;5071671;28;20474;-76
2022/10/05 06:46:05;;;;;;;1.10;0.70;;;14.10;99.90;;;;;;5071761;28;20424;-76
2022/10/05 06:48:45;;;;;;;2.50;0.90;;;14.10;99.90;;;;;;5072661;28;20464;-76
2022/10/05 06:51:22;;;;;;;0.73;0.73;;;14.10;99.90;;;;;;5072818;28;20523;-76
2022/10/05 06:53:57;;;;;;;6.60;1.27;;;14.20;99.90;;;;;;5073170;28;20781;-76
2022/10/05 06:56:31;;;;;;;0.60;0.50;;;14.20;99.90;;;;;;5072811;28;20459;-77
2022/10/05 06:59:06;;;;;;;0.50;0.40;;;14.20;99.90;;;;;;5073706;28;20431;-76
2022/10/05 07:01:46;;;;;;;3.77;2.70;;;14.20;99.90;;;;;;5073438;28;20526;-77
2022/10/05 07:04:30;;;;;;;1.87;1.63;;;14.20;99.90;;;;;;5072690;28;20468;-74
2022/10/05 07:07:02;;;;;;;1.53;0.70;;;14.20;99.90;;;;;;5072211;28;20456;-77
2022/10/05 07:09:41;;;;;;;0.50;0.30;;;14.20;99.90;;;;;;5072574;28;20520;-77
2022/10/05 07:12:26;;;;;;;1.13;1.03;;;14.30;99.90;;;;;;5072211;28;20527;-77
2022/10/05 07:15:07;;;;;;;1.33;0.90;;;14.30;99.90;;;;;;5071586;28;20444;-77
2022/10/05 07:17:48;;;;;;;2.40;1.60;;;14.40;99.90;;;;;;5072452;28;20908;-77
2022/10/05 07:20:22;;;;;;;3.50;3.20;;;14.40;99.90;;;;;;5072840;28;20507;-77
2022/10/05 07:23:04;;;;;;;0.60;0.60;;;14.40;99.90;;;;;;5071894;28;20482;-77
2022/10/05 07:25:35;;;;;;;3.63;0.93;;;14.40;99.90;;;;;;5071081;28;20976;-77
2022/10/05 07:28:08;;;;;;;0.50;0.40;;;14.40;99.90;;;;;;5072456;28;20460;-76
2022/10/05 07:30:41;;;;;;;2.50;1.80;;;14.40;99.90;;;;;;5071849;28;20436;-78
2022/10/05 07:33:15;;;;;;;5.47;1.90;;;14.40;99.90;;;;;;5071759;28;20436;-75
2022/10/05 07:38:40;;;;;;;0.50;0.40;;;14.40;99.90;;;;;;5071804;28;20455;-75
2022/10/05 07:41:14;;;;;;;1.67;1.13;;;14.60;99.90;;;;;;5073816;28;21025;-74
2022/10/05 07:43:48;;;;;;;0.50;0.40;;;14.60;99.90;;;;;;5082359;28;21023;-77
2022/10/05 07:46:21;;;;;;;0.60;0.40;;;14.60;99.90;;;;;;5091512;28;20439;-77
2022/10/05 07:48:56;;;;;;;0.50;0.40;;;14.60;99.90;;;;;;5091544;28;20436;-76
2022/10/05 07:51:31;;;;;;;3.43;1.07;;;14.70;99.90;;;;;;5091585;28;20443;-76
2022/10/05 07:54:20;;;;;;;0.63;0.63;;;14.80;99.90;;;;;;5091638;28;20512;-77
2022/10/05 07:56:53;;;;;;;0.70;0.70;;;14.80;99.90;;;;;;5091999;28;20491;-77
2022/10/05 07:59:30;;;;;;;0.50;0.40;;;14.80;99.90;;;;;;5091688;28;20551;-77
2022/10/05 08:02:06;;;;;;;0.60;0.40;;;14.90;99.90;;;;;;5092120;28;20465;-77
2022/10/05 08:04:40;;;;;;;0.50;0.40;;;15.00;99.90;;;;;;5075252;28;20521;-76
2022/10/05 08:07:12;;;;;;;1.97;1.03;;;15.00;99.90;;;;;;5069750;28;20464;-77
2022/10/05 08:09:44;;;;;;;1.10;1.00;;;15.00;99.90;;;;;;5071495;28;20420;-77
2022/10/05 08:12:23;;;;;;;0.50;0.50;;;15.00;99.90;;;;;;5071117;28;20513;-73
2022/10/05 08:14:57;;;;;;;0.60;0.60;;;15.00;99.90;;;;;;5071018;28;20795;-77
2022/10/05 08:17:42;;;;;;;0.50;0.40;;;15.00;99.90;;;;;;5071423;28;20459;-76
2022/10/05 08:20:24;;;;;;;1.30;0.93;;;15.10;99.90;;;;;;5070770;28;20444;-77
2022/10/05 08:22:58;;;;;;;0.83;0.83;;;15.20;99.90;;;;;;5071230;28;21024;-77
2022/10/05 08:25:29;;;;;;;1.70;0.77;;;15.30;99.90;;;;;;5071274;28;20421;-77
2022/10/05 08:28:03;;;;;;;0.50;0.40;;;15.30;99.90;;;;;;5071599;28;20890;-77
2022/10/05 08:30:33;;;;;;;1.80;1.70;;;15.30;99.90;;;;;;5071021;28;20443;-77
2022/10/05 08:33:08;;;;;;;0.77;0.47;;;15.30;99.90;;;;;;5070811;28;20460;-77
2022/10/05 08:35:39;;;;;;;2.37;2.17;;;15.30;99.90;;;;;;5070860;28;20423;-77
2022/10/05 08:38:12;;;;;;;1.37;0.50;;;15.30;99.90;;;;;;5071530;28;20460;-75
2022/10/05 08:41:05;;;;;;;3.10;0.87;;;15.40;99.90;;;;;;5070679;28;20487;-76
2022/10/05 08:44:05;;;;;;;1.00;1.00;;;15.40;99.90;;;;;;5070938;28;21007;-77
2022/10/05 08:47:04;;;;;;;0.87;0.70;;;15.40;99.90;;;;;;5070791;28;20462;-77
2022/10/05 08:49:58;;;;;;;0.87;0.80;;;15.50;99.90;;;;;;5070763;28;20443;-76
2022/10/05 08:52:28;;;;;;;0.50;0.50;;;15.60;99.90;;;;;;5071386;28;20523;-77
2022/10/05 08:55:38;;;;;;;0.50;0.40;;;15.60;99.90;;;;;;5075286;28;20448;-78
2022/10/05 08:58:33;;;;;;;8.23;2.30;;;15.70;99.90;;;;;;5092169;28;20451;-73
2022/10/05 09:01:09;;;;;;;1.90;0.50;;;15.70;99.90;;;;;;5091195;28;20435;-77
2022/10/05 09:04:13;;;;;;;0.80;0.50;;;15.70;99.90;;;;;;5090989;28;20465;-77
2022/10/05 09:07:05;;;;;;;0.60;0.40;;;15.90;99.90;;;;;;5090977;28;20554;-77
2022/10/05 09:09:59;;;;;;;1.07;0.60;;;15.90;99.90;;;;;;5090925;28;20439;-78
2022/10/05 09:12:59;;;;;;;0.80;0.80;;;16.00;99.90;;;;;;5084702;28;20781;-77
2022/10/05 09:15:47;;;;;;;0.90;0.90;;;16.10;99.90;;;;;;5090816;28;20415;-76
2022/10/05 09:18:45;;;;;;;1.63;1.53;;;16.20;99.90;;;;;;5090967;28;20450;-76
2022/10/05 09:21:17;;;;;;;0.67;0.60;;;16.20;99.90;;;;;;5090826;28;20439;-77
2022/10/05 09:23:52;;;;;;;1.13;1.13;;;16.20;99.90;;;;;;5091082;28;20802;-75
2022/10/05 09:26:42;;;;;;;0.50;0.40;;;16.30;99.90;;;;;;5090936;28;20441;-77
2022/10/05 09:29:39;;;;;;;0.60;0.50;;;16.40;99.90;;;;;;5090987;28;20767;-78
2022/10/05 09:32:32;;;;;;;0.80;0.40;;;16.50;99.90;;;;;;5090402;28;20463;-77
2022/10/05 09:35:16;;;;;;;2.00;0.50;;;16.50;99.90;;;;;;5077388;28;20451;-77
2022/10/05 09:38:08;;;;;;;2.20;1.70;;;16.60;99.90;;;;;;5090419;28;20995;-77
2022/10/05 09:41:13;;;;;;;0.50;0.40;;;16.70;99.90;;;;;;5090824;28;20435;-77
2022/10/05 09:44:22;;;;;;;0.50;0.40;;;16.80;99.90;;;;;;5090372;28;20459;-77
2022/10/05 09:47:19;;;;;;;1.20;1.10;;;16.80;99.90;;;;;;5085196;28;20465;-77
2022/10/05 09:50:11;;;;;;;1.33;1.23;;;16.80;99.90;;;;;;5094440;28;21123;-76
2022/10/05 09:53:04;;;;;;;5.60;1.10;;;16.90;99.90;;;;;;5093630;28;20514;-78
2022/10/05 09:56:09;;;;;;;0.97;0.60;;;16.80;99.90;;;;;;5093961;28;20901;-77
2022/10/05 09:58:57;;;;;;;2.30;0.60;;;17.00;99.90;;;;;;5093981;28;20543;-76
2022/10/05 10:01:48;;;;;;;0.50;0.40;;;17.20;99.90;;;;;;5094681;28;20846;-77
2022/10/05 10:04:42;;;;;;;1.17;0.60;;;17.30;99.90;;;;;;5093995;28;20504;-75
2022/10/05 10:07:41;;;;;;;3.47;1.53;;;17.40;99.90;;;;;;5094019;28;20815;-77
2022/10/05 10:10:47;;;;;;;2.70;1.77;;;17.40;99.90;;;;;;5094136;28;20424;-73
2022/10/05 10:13:36;;;;;;;1.43;1.17;;;17.30;99.90;;;;;;5094127;28;20447;-75
2022/10/05 10:16:35;;;;;;;0.50;0.30;;;17.50;99.90;;;;;;5093073;28;20430;-76
2022/10/05 10:19:18;;;;;;;1.33;0.77;;;17.50;99.90;;;;;;5094790;28;20528;-76
2022/10/05 10:22:32;;;;;;;0.90;0.90;;;17.50;99.90;;;;;;5093739;28;20788;-77
2022/10/05 10:25:18;;;;;;;1.47;0.50;;;17.50;99.90;;;;;;5056851;28;20569;-77
2022/10/05 10:28:18;;;;;;;3.07;1.53;;;17.60;99.90;;;;;;5093808;28;20510;-78
2022/10/05 10:31:15;;;;;;;0.90;0.90;;;17.80;99.90;;;;;;5093936;28;20889;-77
2022/10/05 10:33:58;;;;;;;3.70;1.37;;;17.90;99.90;;;;;;5080667;28;20522;-77
2022/10/05 10:36:45;;;;;;;0.50;0.40;;;18.00;99.90;;;;;;5093053;28;20466;-77
2022/10/05 10:39:20;;;;;;;3.80;1.03;;;18.20;99.90;;;;;;5093162;28;20539;-78
2022/10/05 10:42:16;;;;;;;0.50;0.40;;;18.30;99.90;;;;;;5093272;28;20926;-77
2022/10/05 10:45:04;;;;;;;0.93;0.93;;;18.30;99.90;;;;;;5093087;28;20471;-78
2022/10/05 10:47:50;;;;;;;1.73;1.63;;;18.30;99.90;;;;;;5093439;28;20465;-77
2022/10/05 10:51:01;;;;;;;2.93;2.70;;;18.20;99.90;;;;;;5093598;28;20435;-77
2022/10/05 10:53:50;;;;;;;0.77;0.77;;;18.10;99.90;;;;;;5093371;28;20954;-77
2022/10/05 10:56:29;;;;;;;3.87;0.47;;;18.10;99.90;;;;;;5093845;28;20445;-77
2022/10/05 10:59:34;;;;;;;0.50;0.50;;;18.10;99.90;;;;;;5093243;28;20439;-77
2022/10/05 11:02:22;;;;;;;2.97;2.77;;;18.30;99.90;;;;;;5093303;28;20435;-77
2022/10/05 11:05:21;;;;;;;1.57;1.47;;;18.10;99.90;;;;;;5092400;28;20486;-77
2022/10/05 11:08:49;;;;;;;2.10;0.63;;;18.10;99.90;;;;;;5086944;28;20550;-76
2022/10/05 11:11:43;;;;;;;0.80;0.77;;;18.10;99.90;;;;;;5092787;28;20961;-75
2022/10/05 11:14:44;;;;;;;0.87;0.87;;;18.20;99.90;;;;;;5092319;28;20420;-77
2022/10/05 11:17:37;;;;;;;0.57;0.53;;;18.20;99.90;;;;;;5090010;28;20835;-77
2022/10/05 11:20:36;;;;;;;0.73;0.53;;;18.40;99.90;;;;;;5092633;28;20502;-76
2022/10/05 11:23:29;;;;;;;1.77;1.10;;;18.90;99.90;;;;;;5085471;28;20432;-76
2022/10/05 11:26:13;;;;;;;0.80;0.73;;;19.20;99.90;;;;;;5083340;28;20497;-77
2022/10/05 11:29:16;;;;;;;0.60;0.50;;;19.50;99.90;;;;;;5092232;28;20467;-76
2022/10/05 11:32:06;;;;;;;0.50;0.30;;;19.90;99.90;;;;;;5092739;28;20473;-76
2022/10/05 11:34:56;;;;;;;0.50;0.40;;;20.30;99.90;;;;;;5092276;28;20435;-77
2022/10/05 11:38:02;;;;;;;0.63;0.63;;;20.70;99.90;;;;;;5092050;28;20462;-77
2022/10/05 11:41:01;;;;;;;0.70;0.60;;;20.80;99.90;;;;;;5062334;28;20530;-77
2022/10/05 11:43:52;;;;;;;0.50;0.30;;;20.90;99.90;;;;;;5092552;28;21032;-77
2022/10/05 11:46:27;;;;;;;0.70;0.60;;;21.30;99.90;;;;;;5092193;28;20777;-76
2022/10/05 11:49:27;;;;;;;0.50;0.30;;;21.80;99.90;;;;;;5092424;28;20427;-78
2022/10/05 11:52:02;;;;;;;1.57;0.47;;;21.90;99.90;;;;;;5089055;28;20447;-77
2022/10/05 11:55:00;;;;;;;0.70;0.63;;;22.00;99.90;;;;;;5089025;28;20434;-76
2022/10/05 11:57:37;;;;;;;0.67;0.67;;;21.60;99.90;;;;;;5090695;28;20468;-75
2022/10/05 12:00:11;;;;;;;0.60;0.40;;;21.60;99.90;;;;;;5085639;28;20816;-76
2022/10/05 12:03:26;;;;;;;0.60;0.40;;;21.60;99.90;;;;;;5092069;28;20442;-77
2022/10/05 12:06:04;;;;;;;0.50;0.40;;;21.90;99.90;;;;;;5028745;28;20502;-76
2022/10/05 12:08:40;;;;;;;1.73;0.60;;;22.30;99.90;;;;;;5081853;28;20447;-76
2022/10/05 12:11:31;;;;;;;0.60;0.57;;;22.70;99.90;;;;;;5081166;28;20439;-77
2022/10/05 12:14:06;;;;;;;0.60;0.40;;;23.40;99.90;;;;;;5072416;28;20657;-78
2022/10/05 12:16:40;;;;;;;1.13;1.03;;;24.00;99.90;;;;;;5071401;28;20460;-77
2022/10/05 12:19:15;;;;;;;0.50;0.30;;;24.10;99.90;;;;;;5071705;28;20474;-76
2022/10/05 12:21:47;;;;;;;0.50;0.30;;;24.40;99.90;;;;;;5072090;28;20509;-77
2022/10/05 12:24:19;;;;;;;1.63;1.23;;;24.30;99.90;;;;;;5071358;28;20958;-78
2022/10/05 12:26:52;;;;;;;0.50;0.30;;;24.40;99.90;;;;;;5071507;28;20543;-77
2022/10/05 12:29:26;;;;;;;0.53;0.40;;;24.20;99.90;;;;;;5071439;28;20444;-78
2022/10/05 12:31:59;;;;;;;0.50;0.30;;;24.50;99.90;;;;;;5071189;28;20471;-79
2022/10/05 12:34:43;;;;;;;0.77;0.60;;;25.30;99.90;;;;;;5089192;28;20526;-77
2022/10/05 12:37:28;;;;;;;0.60;0.50;;;25.70;99.30;;;;;;5090740;28;20537;-78
2022/10/05 12:40:01;;;;;;;0.93;0.93;;;26.00;97.30;;;;;;5091373;28;20847;-78
2022/10/05 12:42:34;;;;;;;0.50;0.30;;;26.10;95.00;;;;;;5091697;28;20442;-78
2022/10/05 12:45:26;;;;;;;5.00;1.27;;;25.60;95.80;;;;;;5090553;28;20478;-77
2022/10/05 12:48:17;;;;;;;0.50;0.40;;;25.20;95.90;;;;;;5091531;28;20461;-78
2022/10/05 12:50:49;;;;;;;1.57;0.80;;;25.10;97.70;;;;;;5092679;28;20482;-77
2022/10/05 12:53:30;;;;;;;0.70;0.50;;;25.00;97.20;;;;;;5091134;28;20435;-74
2022/10/05 12:56:04;;;;;;;0.77;0.53;;;24.40;99.90;;;;;;5092017;28;20422;-76
2022/10/05 12:58:42;;;;;;;0.60;0.50;;;24.20;99.90;;;;;;5091254;28;20508;-77
2022/10/05 13:01:22;;;;;;;0.63;0.50;;;24.50;99.90;;;;;;5091573;28;20423;-76
2022/10/05 13:03:55;;;;;;;0.97;0.50;;;24.50;99.90;;;;;;5090752;28;20423;-77
2022/10/05 13:06:29;;;;;;;0.63;0.53;;;25.10;99.90;;;;;;5090957;28;20511;-77
2022/10/05 13:09:01;;;;;;;1.00;0.70;;;25.20;98.60;;;;;;5091444;28;20800;-77
2022/10/05 13:11:37;;;;;;;0.53;0.47;;;24.90;99.20;;;;;;5090872;28;20431;-76
2022/10/05 13:14:13;;;;;;;2.17;1.60;;;24.90;99.90;;;;;;5090514;28;20845;-77
2022/10/05 13:16:49;;;;;;;2.70;0.60;;;24.70;99.30;;;;;;5090874;28;20450;-77
2022/10/05 13:19:34;;;;;;;0.60;0.50;;;24.70;99.70;;;;;;5091202;28;20454;-76
2022/10/05 13:22:14;;;;;;;0.60;0.50;;;24.40;99.90;;;;;;5091140;28;20943;-77
2022/10/05 13:24:51;;;;;;;0.50;0.40;;;24.30;99.90;;;;;;5094730;28;20461;-77
2022/10/05 13:27:22;;;;;;;0.60;0.40;;;24.50;99.90;;;;;;5094675;28;20466;-76
2022/10/05 13:29:57;;;;;;;1.00;0.57;;;24.70;99.80;;;;;;5094725;28;20446;-77
2022/10/05 13:32:30;;;;;;;0.93;0.73;;;24.70;99.20;;;;;;5094548;28;20501;-76
2022/10/05 13:35:06;;;;;;;0.60;0.40;;;25.10;99.60;;;;;;5094681;28;21059;-77
2022/10/05 13:37:42;;;;;;;0.50;0.30;;;25.40;98.10;;;;;;5094340;28;20459;-77
2022/10/05 13:40:20;;;;;;;0.50;0.40;;;25.70;95.70;;;;;;5094487;28;20473;-76
2022/10/05 13:42:52;;;;;;;0.50;0.30;;;26.00;95.10;;;;;;5094280;28;20439;-76
2022/10/05 13:45:22;;;;;;;0.60;0.60;;;26.10;94.90;;;;;;5094419;28;20469;-76
2022/10/05 13:48:04;;;;;;;0.67;0.40;;;26.20;93.30;;;;;;5095120;28;20553;-77
2022/10/05 13:50:34;;;;;;;0.50;0.40;;;26.30;93.30;;;;;;5094835;28;20447;-76
2022/10/05 13:53:12;;;;;;;0.50;0.40;;;26.10;91.50;;;;;;5095084;28;20800;-77
2022/10/05 13:55:46;;;;;;;0.50;0.30;;;25.80;91.70;;;;;;5094207;28;20442;-76